Stornoway — WDC7908 — position and weather

sailwx.info

Track history (hours):
 
Tides and Currents Weather Stations Pressure Air Temp Water Temp Dewpoint Dewpoint Depression Visibility Wind Speed Wind Dir Waves Ship Positions

Stornoway

Owner: Matthews, William R, Bainbridge Island, WA. More information available from US FCC via Universal Licensing System and Coast Guard Vessel Documentation Center.

Last reported at 2016-Jun-08 01:24 UTC. Time now 2016-Jun-24 23:55 UTC.
Position N 47°42' W 122°32'.
Warning: this ship's position is 16 days out of date.

Length 13 m.

Type: Pleasure craft. MMSI: 367078810.

Date/timePositionNaut miles runAvg speedWind from/ knotsBaromVisibWave heightAir tempDewpointWater temp
2016-Jun-08 01:24N 47°42' W 122°32'1 0.3
2016-Jun-07 21:32N 47°43' W 122°33'2 0.1
2016-Jun-06 22:33N 47°44' W 122°30'9 8.9
2016-Jun-06 21:33N 47°53' W 122°30'40 1.5
2016-Jun-05 18:11N 48°26' W 123°03'812.1
2016-Jun-05 17:32N 48°32' W 123°10'21 9.9
2016-Jun-05 15:28N 48°50' W 123°26'3 2.8
2016-Jun-05 14:28N 48°51' W 123°30'0 0.0
2016-Jun-05 12:26N 48°51' W 123°30'0 0.0
2016-Jun-05 10:17N 48°51' W 123°30'0 0.0
2016-Jun-05 09:29N 48°51' W 123°30'0 0.0
2016-Jun-05 08:29N 48°51' W 123°30'0 0.0
2016-Jun-05 06:17N 48°51' W 123°30'0 0.0
2016-Jun-04 23:20N 48°51' W 123°30'0 0.0
2016-Jun-04 18:29N 48°51' W 123°30'  
2016-Jun-01 22:17N 48°55' W 123°40'7 8.5
2016-Jun-01 21:30N 49°02' W 123°43'7 7.4
2016-Jun-01 20:32N 49°09' W 123°41'0 0.4
2016-Jun-01 19:29N 49°09' W 123°42'0 0.0
2016-Jun-01 18:29N 49°09' W 123°42'0 0.0
2016-Jun-01 17:26N 49°09' W 123°42'0 0.0
2016-Jun-01 16:32N 49°09' W 123°42'0 0.0
2016-Jun-01 15:32N 49°09' W 123°42'0 0.0
2016-Jun-01 14:26N 49°09' W 123°42'0 0.0
2016-Jun-01 13:32N 49°09' W 123°42'0 0.0
2016-Jun-01 12:32N 49°09' W 123°42'0 0.0
2016-Jun-01 09:17N 49°09' W 123°42'0 0.0
2016-Jun-01 08:32N 49°09' W 123°42'0 0.0
2016-Jun-01 07:20N 49°09' W 123°42'0 0.0
2016-Jun-01 06:23N 49°09' W 123°42'0 0.0
2016-Jun-01 05:26N 49°09' W 123°42'0 0.0
2016-Jun-01 04:32N 49°09' W 123°42'0 0.0
2016-Jun-01 03:32N 49°09' W 123°42'0 0.0
2016-Jun-01 02:23N 49°09' W 123°42'0 0.0
2016-Jun-01 01:29N 49°09' W 123°42'0 0.0
2016-Jun-01 00:29N 49°09' W 123°42'0 0.0
2016-May-31 23:14N 49°09' W 123°42'0 0.0
2016-May-31 22:32N 49°09' W 123°42'0 0.0
2016-May-31 21:20N 49°09' W 123°42'0 0.0
2016-May-31 20:26N 49°09' W 123°42'0 0.0
2016-May-31 19:32N 49°09' W 123°42'0 0.0
2016-May-31 18:32N 49°09' W 123°42'0 0.4
2016-May-31 17:33N 49°09' W 123°42'9 8.3
2016-May-31 16:31N 49°17' W 123°47'8 8.4
2016-May-31 15:33N 49°24' W 123°53'9 8.7
2016-May-31 14:34N 49°32' W 123°59'7 6.5
2016-May-31 13:32N 49°38' W 124°03'1 1.0
2016-May-31 12:32N 49°37' W 124°02'0 0.0
2016-May-31 11:32N 49°37' W 124°02'0 0.0
2016-May-31 10:32N 49°37' W 124°02'0 0.0
2016-May-31 09:32N 49°37' W 124°02'0 0.0
2016-May-31 08:32N 49°37' W 124°02'0 0.0
2016-May-31 07:32N 49°37' W 124°02'0 0.0
2016-May-31 04:32N 49°37' W 124°02'0 0.0
2016-May-30 08:26N 49°37' W 124°02'0 0.0
2016-May-30 07:32N 49°37' W 124°02'0 0.0
2016-May-30 00:08N 49°37' W 124°02'0 0.0
2016-May-29 21:26N 49°37' W 124°02'1 0.2
2016-May-29 17:32N 49°38' W 124°03'8 7.9
2016-May-29 16:29N 49°43' W 124°13'  
Track history (hours):
 
Tides and Currents Weather Stations Pressure Air Temp Water Temp Dewpoint Dewpoint Depression Visibility Wind Speed Wind Dir Waves Ship Positions

Stornoway

Owner: Matthews, William R, Bainbridge Island, WA. More information available from US FCC via Universal Licensing System and Coast Guard Vessel Documentation Center.

Last reported at 2016-Jun-08 01:24 UTC. Time now 2016-Jun-24 23:55 UTC.
Position N 47°42' W 122°32'.
Warning: this ship's position is 16 days out of date.

Length 13 m.

Type: Pleasure craft. MMSI: 367078810.

Date/timePositionNaut miles runAvg speedWind from/ knotsBaromVisibWave heightAir tempDewpointWater temp
2016-Jun-08 01:24N 47°42' W 122°32'1 0.3
2016-Jun-07 21:32N 47°43' W 122°33'2 0.1
2016-Jun-06 22:33N 47°44' W 122°30'9 8.9
2016-Jun-06 21:33N 47°53' W 122°30'40 1.5
2016-Jun-05 18:11N 48°26' W 123°03'812.1
2016-Jun-05 17:32N 48°32' W 123°10'21 9.9
2016-Jun-05 15:28N 48°50' W 123°26'3 2.8
2016-Jun-05 14:28N 48°51' W 123°30'0 0.0
2016-Jun-05 12:26N 48°51' W 123°30'0 0.0
2016-Jun-05 10:17N 48°51' W 123°30'0 0.0
2016-Jun-05 09:29N 48°51' W 123°30'0 0.0
2016-Jun-05 08:29N 48°51' W 123°30'0 0.0
2016-Jun-05 06:17N 48°51' W 123°30'0 0.0
2016-Jun-04 23:20N 48°51' W 123°30'0 0.0
2016-Jun-04 18:29N 48°51' W 123°30'  
2016-Jun-01 22:17N 48°55' W 123°40'7 8.5
2016-Jun-01 21:30N 49°02' W 123°43'7 7.4
2016-Jun-01 20:32N 49°09' W 123°41'0 0.4
2016-Jun-01 19:29N 49°09' W 123°42'0 0.0
2016-Jun-01 18:29N 49°09' W 123°42'0 0.0
2016-Jun-01 17:26N 49°09' W 123°42'0 0.0
2016-Jun-01 16:32N 49°09' W 123°42'0 0.0
2016-Jun-01 15:32N 49°09' W 123°42'0 0.0
2016-Jun-01 14:26N 49°09' W 123°42'0 0.0
2016-Jun-01 13:32N 49°09' W 123°42'0 0.0
2016-Jun-01 12:32N 49°09' W 123°42'0 0.0
2016-Jun-01 09:17N 49°09' W 123°42'0 0.0
2016-Jun-01 08:32N 49°09' W 123°42'0 0.0
2016-Jun-01 07:20N 49°09' W 123°42'0 0.0
2016-Jun-01 06:23N 49°09' W 123°42'0 0.0
2016-Jun-01 05:26N 49°09' W 123°42'0 0.0
2016-Jun-01 04:32N 49°09' W 123°42'0 0.0
2016-Jun-01 03:32N 49°09' W 123°42'0 0.0
2016-Jun-01 02:23N 49°09' W 123°42'0 0.0
2016-Jun-01 01:29N 49°09' W 123°42'0 0.0
2016-Jun-01 00:29N 49°09' W 123°42'0 0.0
2016-May-31 23:14N 49°09' W 123°42'0 0.0
2016-May-31 22:32N 49°09' W 123°42'0 0.0
2016-May-31 21:20N 49°09' W 123°42'0 0.0
2016-May-31 20:26N 49°09' W 123°42'0 0.0
2016-May-31 19:32N 49°09' W 123°42'0 0.0
2016-May-31 18:32N 49°09' W 123°42'0 0.4
2016-May-31 17:33N 49°09' W 123°42'9 8.3
2016-May-31 16:31N 49°17' W 123°47'8 8.4
2016-May-31 15:33N 49°24' W 123°53'9 8.7
2016-May-31 14:34N 49°32' W 123°59'7 6.5
2016-May-31 13:32N 49°38' W 124°03'1 1.0
2016-May-31 12:32N 49°37' W 124°02'0 0.0
2016-May-31 11:32N 49°37' W 124°02'0 0.0
2016-May-31 10:32N 49°37' W 124°02'0 0.0
2016-May-31 09:32N 49°37' W 124°02'0 0.0
2016-May-31 08:32N 49°37' W 124°02'0 0.0
2016-May-31 07:32N 49°37' W 124°02'0 0.0
2016-May-31 04:32N 49°37' W 124°02'0 0.0
2016-May-30 08:26N 49°37' W 124°02'0 0.0
2016-May-30 07:32N 49°37' W 124°02'0 0.0
2016-May-30 00:08N 49°37' W 124°02'0 0.0
2016-May-29 21:26N 49°37' W 124°02'1 0.2
2016-May-29 17:32N 49°38' W 124°03'8 7.9
2016-May-29 16:29N 49°43' W 124°13'  

Dump ship's entire track history